createdAt,value
2022-08-17T08:27:49.752Z,2.50
2022-08-17T08:30:44.959Z,1.92
2022-08-17T08:34:09.234Z,2.42
2022-08-17T08:37:34.755Z,2.28
2022-08-17T08:40:40.734Z,1.83
2022-08-17T08:43:53.421Z,2.47
2022-08-17T08:47:10.023Z,2.42
2022-08-17T08:50:37.506Z,2.05
2022-08-17T08:53:51.908Z,1.80
2022-08-17T08:57:11.614Z,2.10
2022-08-17T08:59:57.966Z,2.08
2022-08-17T09:03:08.737Z,2.35
2022-08-17T09:06:32.283Z,2.20
2022-08-17T09:09:38.974Z,1.80
2022-08-17T09:12:53.097Z,1.92
2022-08-17T09:15:44.956Z,2.25
2022-08-17T09:19:00.582Z,2.25
2022-08-17T09:22:24.090Z,2.03
2022-08-17T09:25:17.303Z,3.15
2022-08-17T09:28:13.657Z,2.20
2022-08-17T09:31:04.161Z,2.60
2022-08-17T09:33:51.265Z,2.17
2022-08-17T09:36:56.295Z,1.90
2022-08-17T09:39:50.504Z,1.80
2022-08-17T09:42:55.969Z,2.10
2022-08-17T09:45:50.706Z,1.38
2022-08-17T09:48:41.644Z,1.60
2022-08-17T09:51:40.009Z,1.60
2022-08-17T09:54:39.822Z,1.63
2022-08-17T09:57:54.290Z,2.00
2022-08-17T10:00:50.661Z,1.45
2022-08-17T10:03:58.154Z,1.67
2022-08-17T10:06:58.602Z,1.60
2022-08-17T10:09:57.650Z,1.55
2022-08-17T10:13:03.982Z,1.90
2022-08-17T10:16:28.491Z,1.55
2022-08-17T10:19:39.080Z,1.70
2022-08-17T10:22:56.448Z,1.70
2022-08-17T10:26:07.223Z,1.33
2022-08-17T10:28:58.661Z,1.70
2022-08-17T10:31:51.467Z,1.33
2022-08-17T10:34:52.423Z,1.20
2022-08-17T10:37:53.257Z,1.73
2022-08-17T10:40:50.567Z,1.60
2022-08-17T10:44:36.679Z,1.40
2022-08-17T10:47:12.662Z,1.90
2022-08-17T10:50:38.425Z,1.65
2022-08-17T10:53:33.006Z,1.48
2022-08-17T10:56:21.697Z,1.67
2022-08-17T10:59:07.565Z,1.35
2022-08-17T11:02:04.029Z,1.30
2022-08-17T11:05:07.367Z,1.90
2022-08-17T11:08:12.851Z,1.48
2022-08-17T11:11:35.862Z,2.13
2022-08-17T11:14:27.198Z,2.00
2022-08-17T11:17:30.173Z,1.33
2022-08-17T11:20:39.316Z,1.13
2022-08-17T11:24:05.040Z,1.48
2022-08-17T11:27:21.870Z,1.38
2022-08-17T11:30:40.842Z,1.00
2022-08-17T11:33:29.293Z,1.13
2022-08-17T11:36:52.381Z,1.30
2022-08-17T11:39:56.663Z,1.33
2022-08-17T11:43:00.168Z,1.30
2022-08-17T11:46:51.822Z,1.55
2022-08-17T11:55:52.495Z,1.38
2022-08-17T11:58:42.987Z,1.23
2022-08-17T12:01:32.244Z,1.40
2022-08-17T12:04:28.391Z,1.30
2022-08-17T12:07:18.949Z,1.40
2022-08-17T12:10:05.838Z,1.20
2022-08-17T12:12:53.978Z,1.60
2022-08-17T12:15:48.569Z,1.40
2022-08-17T12:18:38.724Z,1.77
2022-08-17T12:21:49.669Z,1.58
2022-08-17T12:25:10.860Z,1.33
2022-08-17T12:28:06.003Z,1.50
2022-08-17T12:30:54.107Z,1.50
2022-08-17T12:33:44.472Z,1.35
2022-08-17T12:36:30.641Z,1.52
2022-08-17T12:39:25.074Z,1.33
2022-08-17T12:42:23.440Z,1.35
2022-08-17T12:45:24.782Z,1.10
2022-08-17T12:48:21.898Z,1.70
2022-08-17T12:51:08.836Z,1.30
2022-08-17T12:53:55.436Z,1.30
2022-08-17T12:56:45.872Z,1.40
2022-08-17T12:59:33.313Z,1.75
2022-08-17T13:02:29.888Z,1.20
2022-08-17T13:05:23.972Z,1.02
2022-08-17T13:08:33.484Z,1.38
2022-08-17T13:11:24.008Z,1.77
2022-08-17T13:14:10.545Z,1.55
2022-08-17T13:17:01.722Z,1.40
2022-08-17T13:19:50.576Z,1.20
2022-08-17T13:22:36.309Z,1.50
2022-08-17T13:25:21.795Z,1.85
2022-08-17T13:28:36.180Z,1.30
2022-08-17T13:31:40.244Z,1.30
2022-08-17T13:35:12.537Z,1.65
2022-08-17T13:38:01.499Z,1.30
2022-08-17T13:40:52.885Z,1.30
2022-08-17T13:43:45.808Z,1.35
2022-08-17T13:46:33.001Z,1.58
2022-08-17T13:49:20.897Z,1.58
2022-08-17T13:52:07.867Z,1.35
2022-08-17T13:54:55.689Z,1.45
2022-08-17T13:57:46.419Z,1.23
2022-08-17T14:00:33.660Z,1.30
2022-08-17T14:03:20.323Z,1.52
2022-08-17T14:06:06.045Z,1.55
2022-08-17T14:08:54.616Z,1.45
2022-08-17T14:11:40.589Z,1.50
2022-08-17T14:14:26.753Z,1.25
2022-08-17T14:17:12.672Z,1.52
2022-08-17T14:19:59.405Z,1.45
2022-08-17T14:22:49.409Z,1.25
2022-08-17T14:25:35.219Z,1.30
2022-08-17T14:28:20.681Z,1.40
2022-08-17T14:31:08.334Z,1.90
2022-08-17T14:33:53.837Z,1.40
2022-08-17T14:36:41.743Z,1.60
2022-08-17T14:39:33.848Z,1.15
2022-08-17T14:42:20.411Z,1.70
2022-08-17T14:45:27.402Z,1.52
2022-08-17T14:48:14.187Z,1.48
2022-08-17T14:50:59.689Z,1.48
2022-08-17T14:53:45.775Z,1.45
2022-08-17T14:56:31.769Z,1.20
2022-08-17T14:59:23.841Z,1.35
2022-08-17T15:02:10.681Z,1.60
2022-08-17T15:05:05.165Z,2.15
2022-08-17T15:10:36.991Z,1.33
2022-08-17T15:13:25.315Z,1.30
2022-08-17T15:16:13.651Z,1.40
2022-08-17T15:19:00.219Z,1.33
2022-08-17T15:21:46.813Z,1.50
2022-08-17T15:24:32.312Z,1.67
2022-08-17T15:27:17.778Z,1.48
2022-08-17T15:30:17.329Z,1.60
2022-08-17T15:33:03.523Z,1.30
2022-08-17T15:35:51.684Z,1.75
2022-08-17T15:38:39.255Z,1.30
2022-08-17T15:41:27.967Z,1.30
2022-08-17T15:44:13.500Z,1.40
2022-08-17T15:46:58.976Z,1.50
2022-08-17T15:52:31.123Z,1.58
2022-08-17T15:55:23.430Z,1.40
2022-08-17T15:58:09.784Z,1.40
2022-08-17T16:04:07.319Z,1.10
2022-08-17T16:07:07.194Z,1.40
2022-08-17T16:09:52.576Z,1.10
2022-08-17T16:12:38.326Z,1.00
2022-08-17T16:15:23.968Z,1.15
2022-08-17T16:18:10.123Z,1.45
2022-08-17T16:20:55.468Z,1.42
2022-08-17T16:23:41.298Z,1.20
2022-08-17T16:26:28.387Z,1.30
2022-08-17T16:29:14.066Z,1.38
2022-08-17T16:32:08.587Z,1.08
2022-08-17T16:34:54.247Z,1.70
2022-08-17T16:40:31.340Z,1.02
2022-08-17T16:43:21.618Z,1.40
2022-08-17T16:46:06.923Z,1.58
2022-08-17T16:48:52.653Z,1.60
2022-08-17T16:51:38.125Z,1.35
2022-08-17T16:54:23.427Z,1.17
2022-08-17T16:57:13.151Z,1.13
2022-08-17T16:59:58.729Z,1.42
2022-08-17T17:02:47.581Z,1.40
2022-08-17T17:05:51.436Z,1.42
2022-08-17T17:08:49.218Z,1.65
2022-08-17T17:11:47.005Z,1.45
2022-08-17T17:14:36.761Z,1.50
2022-08-17T17:17:25.243Z,1.83
2022-08-17T17:23:22.011Z,1.35
2022-08-17T17:26:23.654Z,1.80
2022-08-17T17:29:26.649Z,1.55
2022-08-17T17:32:37.944Z,1.20
2022-08-17T17:35:31.854Z,1.92
2022-08-17T17:38:29.229Z,2.38
2022-08-17T17:41:26.496Z,1.52
2022-08-17T17:44:17.976Z,2.00
2022-08-17T17:47:05.988Z,2.10
2022-08-17T17:49:51.365Z,1.90
2022-08-17T17:53:04.225Z,2.08
2022-08-17T17:56:40.522Z,1.60
2022-08-17T17:59:48.495Z,1.88
2022-08-17T18:02:52.763Z,1.90
2022-08-17T18:06:03.024Z,1.90
2022-08-17T18:12:12.160Z,2.53
2022-08-17T18:15:21.599Z,2.20
2022-08-17T18:18:15.940Z,1.83
2022-08-17T18:21:07.184Z,2.08
2022-08-17T18:24:04.043Z,1.83
2022-08-17T18:26:56.773Z,2.10
2022-08-17T18:29:47.858Z,2.00
2022-08-17T18:32:38.198Z,2.55
2022-08-17T18:35:28.421Z,1.83
2022-08-17T18:38:27.273Z,1.77
2022-08-17T18:41:26.065Z,2.60
2022-08-17T18:44:42.390Z,1.98
2022-08-17T18:47:28.915Z,2.00
2022-08-17T18:50:26.262Z,1.92
2022-08-17T18:53:30.190Z,2.15
2022-08-17T18:56:34.035Z,2.28
2022-08-17T18:59:43.327Z,1.60
2022-08-17T19:02:44.170Z,1.98
2022-08-17T19:05:40.504Z,1.98
2022-08-17T19:08:28.525Z,2.58
2022-08-17T19:11:25.886Z,1.83
2022-08-17T19:14:16.555Z,2.08
2022-08-17T19:17:12.407Z,2.30
2022-08-17T19:20:10.257Z,2.53
2022-08-17T19:23:31.004Z,2.22
2022-08-17T19:26:51.396Z,2.00
2022-08-17T19:30:10.151Z,1.92
2022-08-17T19:32:58.221Z,1.80
2022-08-17T19:35:58.886Z,2.03
2022-08-17T19:39:32.057Z,1.55
2022-08-17T19:42:47.638Z,1.95
2022-08-17T19:46:05.904Z,1.77
2022-08-17T19:51:58.023Z,1.70
2022-08-17T19:54:55.211Z,2.17
2022-08-17T19:58:07.597Z,1.35
2022-08-17T20:00:54.698Z,2.13
2022-08-17T20:04:07.382Z,1.80
2022-08-17T20:06:53.260Z,1.75
2022-08-17T20:09:44.224Z,1.98
2022-08-17T20:12:36.011Z,2.13
2022-08-17T20:15:35.445Z,1.80
2022-08-17T20:18:47.672Z,2.00
2022-08-17T20:21:48.447Z,1.98
2022-08-17T20:24:36.845Z,2.25
2022-08-17T20:27:31.589Z,1.95
2022-08-17T20:30:23.306Z,1.65
2022-08-17T20:33:23.810Z,2.45
2022-08-17T20:36:20.425Z,1.77
2022-08-17T20:39:05.821Z,2.22
2022-08-17T20:42:21.885Z,2.30
2022-08-17T20:45:23.330Z,2.00
2022-08-17T20:48:36.374Z,1.73
2022-08-17T20:51:32.384Z,2.55
2022-08-17T20:54:18.083Z,2.30
2022-08-17T20:57:09.185Z,2.20
2022-08-17T21:00:27.850Z,2.35
2022-08-17T21:03:26.858Z,2.25
2022-08-17T21:06:17.579Z,2.50
2022-08-17T21:09:12.518Z,2.35
2022-08-17T21:12:04.619Z,1.88
2022-08-17T21:15:03.412Z,2.50
2022-08-17T21:17:56.695Z,2.38
2022-08-17T21:21:05.915Z,1.90
2022-08-17T21:24:21.649Z,2.47
2022-08-17T21:27:20.033Z,2.30
2022-08-17T21:30:06.477Z,2.42
2022-08-17T21:33:25.048Z,1.98
2022-08-17T21:36:11.355Z,2.55
2022-08-17T21:39:04.881Z,2.58
2022-08-17T21:41:55.687Z,1.90
2022-08-17T21:44:52.184Z,2.10
2022-08-17T21:47:43.343Z,2.20
2022-08-17T21:50:30.047Z,2.00
2022-08-17T21:53:30.678Z,2.05
2022-08-17T21:56:34.279Z,2.15
2022-08-17T21:59:27.116Z,2.95
2022-08-17T22:02:21.130Z,2.17
2022-08-17T22:05:12.791Z,2.22
2022-08-17T22:08:06.402Z,2.03
2022-08-17T22:11:01.932Z,2.05
2022-08-17T22:13:47.397Z,2.83
2022-08-17T22:16:34.771Z,2.13
2022-08-17T22:19:28.875Z,2.00
2022-08-17T22:22:29.180Z,2.50
2022-08-17T22:25:21.474Z,2.33
2022-08-17T22:28:10.377Z,2.20
2022-08-17T22:31:02.295Z,2.30
2022-08-17T22:34:10.834Z,2.58
2022-08-17T22:37:27.615Z,2.35
2022-08-17T22:40:26.329Z,2.50
2022-08-17T22:43:12.900Z,2.13
2022-08-17T22:48:52.218Z,2.60
2022-08-17T22:51:37.869Z,2.58
2022-08-17T22:54:41.504Z,3.83
2022-08-17T22:57:47.061Z,3.33
2022-08-17T23:00:38.059Z,2.83
2022-08-17T23:03:26.021Z,2.97
2022-08-17T23:06:11.525Z,2.22
2022-08-17T23:08:57.641Z,2.50
2022-08-17T23:11:49.937Z,2.53
2022-08-17T23:14:41.832Z,2.33
2022-08-17T23:17:33.899Z,3.00
2022-08-17T23:20:22.248Z,2.40
2022-08-17T23:23:08.960Z,2.83
2022-08-17T23:25:54.661Z,2.80
2022-08-17T23:28:41.010Z,3.40
2022-08-17T23:31:26.488Z,3.30
2022-08-17T23:34:15.383Z,3.22
2022-08-17T23:37:02.273Z,3.33
2022-08-17T23:39:47.767Z,3.30
2022-08-17T23:42:34.732Z,3.30
2022-08-17T23:45:20.318Z,3.10
2022-08-17T23:48:07.833Z,3.20
2022-08-17T23:50:55.345Z,3.92
2022-08-17T23:53:48.035Z,3.30
2022-08-17T23:56:37.088Z,3.35
2022-08-17T23:59:23.483Z,2.90
